ADDS METAR Data INFO
IDs: Format: Raw Decoded Include TAF

Data at: 0855 UTC 18 Aug 2017

METAR for:GCLA (La Palma Arpt, --, CR)
Text:GCLA 180830Z 01014KT CAVOK 24/20 Q1018
Temperature: 24.0°C ( 75°F)
Dewpoint: 20.0°C ( 68°F) [RH = 78%]
Pressure (altimeter):30.06 inches Hg (1018.0 mb)
Winds:from the N (10 degrees) at 16 MPH (14 knots; 7.2 m/s)
Visibility:6 or more sm (10+ km)
Ceiling:ceiling and visibility are OK
Clouds:unknown